Time;durP1;ratioP1;P1;durP2;ratioP2;P2;SDS_P1;SDS_P2;PMS_P1;PMS_P2;Temp;Humidity;BMP_temperature;BMP_pressure;BME280_temperature;BME280_humidity;BME280_pressure;Samples;Min_cycle;Max_cycle;Signal;HPM_P1;HPM_P2
2022/06/13 00:00:32;;;;;;;0.10;0.10;;;;;;;19.28;54.41;102140.81;5044557;28;20075;-74
2022/06/13 00:02:59;;;;;;;0.10;0.10;;;;;;;19.28;54.32;102146.19;5047833;28;20025;-74
2022/06/13 00:05:26;;;;;;;0.00;0.00;;;;;;;19.27;55.10;102137.28;5042714;28;20604;-74
2022/06/13 00:07:52;;;;;;;0.08;0.08;;;;;;;19.29;54.56;102140.81;5051294;28;20478;-74
2022/06/13 00:10:18;;;;;;;0.10;0.10;;;;;;;19.37;53.91;102144.06;5045706;28;20056;-74
2022/06/13 00:12:45;;;;;;;0.20;0.20;;;;;;;19.38;53.86;102143.13;5039875;28;20036;-74
2022/06/13 00:15:14;;;;;;;1.10;1.05;;;;;;;19.40;54.54;102137.69;5050589;28;20094;-74
2022/06/13 00:17:40;;;;;;;4.22;0.63;;;;;;;19.42;54.29;102126.91;5050510;28;20394;-74
2022/06/13 00:20:07;;;;;;;0.10;0.10;;;;;;;19.43;54.15;102123.28;5048115;28;20025;-74
2022/06/13 00:22:33;;;;;;;0.10;0.10;;;;;;;19.45;53.93;102125.00;5048006;28;20048;-74
2022/06/13 00:25:00;;;;;;;0.30;0.30;;;;;;;19.45;54.16;102122.31;5042683;28;20030;-75
2022/06/13 00:27:26;;;;;;;0.10;0.10;;;;;;;19.47;54.15;102114.19;5042837;28;20037;-74
2022/06/13 00:29:53;;;;;;;0.68;0.68;;;;;;;19.47;54.51;102117.72;5042163;28;20461;-74
2022/06/13 00:32:19;;;;;;;0.10;0.10;;;;;;;19.48;54.53;102114.13;5045440;28;20052;-74
2022/06/13 00:34:47;;;;;;;0.08;0.08;;;;;;;19.50;54.03;102120.31;5046645;28;20503;-74
2022/06/13 00:37:13;;;;;;;0.20;0.20;;;;;;;19.51;54.30;102107.75;5031765;28;20499;-74
2022/06/13 00:39:40;;;;;;;0.10;0.10;;;;;;;19.53;54.06;102114.81;5050837;28;20047;-74
2022/06/13 00:42:06;;;;;;;0.10;0.10;;;;;;;19.56;53.75;102116.50;5025420;28;20029;-74
2022/06/13 00:44:36;;;;;;;0.10;0.10;;;;;;;19.56;54.72;102119.19;5031642;28;20025;-74
2022/06/13 00:47:03;;;;;;;0.10;0.10;;;;;;;19.56;54.89;102116.50;5031776;28;20555;-74
2022/06/13 00:49:41;;;;;;;0.20;0.20;;;;;;;19.61;54.38;102113.66;5032702;28;20044;-74
2022/06/13 00:54:49;;;;;;;0.00;0.00;;;;;;;19.53;54.04;102130.09;5103909;27;20397;-74
2022/06/13 00:57:20;;;;;;;0.08;0.08;;;;;;;19.53;54.34;102114.81;5109139;28;20050;-73
2022/06/13 00:59:50;;;;;;;0.00;0.00;;;;;;;19.52;54.78;102109.50;5093298;28;20224;-74
2022/06/13 01:02:17;;;;;;;0.10;0.10;;;;;;;19.49;55.02;102120.34;5087925;28;20070;-74
2022/06/13 01:04:45;;;;;;;0.08;0.08;;;;;;;19.49;54.46;102114.97;5088004;28;20040;-74
2022/06/13 01:07:14;;;;;;;0.00;0.00;;;;;;;19.45;54.84;102094.53;5077995;28;20031;-73
2022/06/13 01:12:29;;;;;;;0.10;0.10;;;;;;;19.45;55.35;102099.91;5084686;28;20066;-74
2022/06/13 01:26:08;;;;;;;0.10;0.10;;;;;;;19.55;55.10;102104.00;5069423;28;20385;-73
2022/06/13 01:34:38;;;;;;;0.00;0.00;;;;;;;19.53;54.50;102105.88;5110443;27;20392;-74
2022/06/13 01:42:58;;;;;;;0.00;0.00;;;;;;;19.46;55.91;102099.84;5093712;27;20439;-74
2022/06/13 01:45:38;;;;;;;0.00;0.00;;;;;;;19.45;55.11;102107.97;5089688;28;20038;-74
2022/06/13 01:48:31;;;;;;;0.05;0.05;;;;;;;19.48;55.58;102113.25;5087582;28;20158;-74
2022/06/13 01:51:23;;;;;;;0.17;0.17;;;;;;;19.42;55.79;102108.09;5075693;28;20033;-74
2022/06/13 01:54:06;;;;;;;0.28;0.28;;;;;;;19.34;55.82;102111.03;5064598;28;20100;-74
2022/06/13 01:56:39;;;;;;;0.00;0.00;;;;;;;19.31;56.16;102109.34;5067889;28;20051;-74
2022/06/13 01:59:19;;;;;;;0.20;0.20;;;;;;;19.26;57.11;102114.03;5072077;28;20123;-74
2022/06/13 02:01:53;;;;;;;0.10;0.10;;;;;;;19.22;56.33;102113.25;5071518;28;20025;-74
2022/06/13 02:04:23;;;;;;;0.10;0.10;;;;;;;19.21;56.96;102116.00;5073590;28;20119;-74
2022/06/13 02:07:00;;;;;;;0.00;0.00;;;;;;;19.22;58.09;102115.06;5073467;28;20032;-74
2022/06/13 02:09:32;;;;;;;0.30;0.30;;;;;;;19.23;57.61;102111.47;5068745;28;20497;-74
2022/06/13 02:11:59;;;;;;;0.30;0.30;;;;;;;19.23;57.73;102115.00;5069332;28;20043;-74
2022/06/13 02:22:37;;;;;;;0.10;0.10;;;;;;;19.11;58.04;102114.59;5116827;27;20399;-74
2022/06/13 02:25:11;;;;;;;0.10;0.10;;;;;;;19.01;58.92;102117.59;5108569;28;20031;-73
2022/06/13 02:27:39;;;;;;;0.00;0.00;;;;;;;18.98;58.95;102114.13;5106416;28;20023;-74
2022/06/13 02:30:12;;;;;;;0.03;0.03;;;;;;;18.95;59.02;102125.84;5093369;27;20036;-74
2022/06/13 02:32:47;;;;;;;0.90;0.90;;;;;;;19.01;58.53;102119.41;5081142;28;20495;-74
2022/06/13 02:35:23;;;;;;;0.03;0.03;;;;;;;19.02;59.04;102122.03;5080309;28;20532;-75
2022/06/13 02:37:59;;;;;;;0.00;0.00;;;;;;;19.04;58.51;102112.13;5099861;28;20032;-74
2022/06/13 02:40:32;;;;;;;0.00;0.00;;;;;;;18.92;59.97;102115.25;5083388;28;20103;-73
2022/06/13 02:43:07;;;;;;;0.25;0.25;;;;;;;19.03;59.09;102118.41;5083150;28;20047;-74
2022/06/13 02:45:41;;;;;;;0.00;0.00;;;;;;;19.02;59.18;102115.78;5085644;28;20579;-74
2022/06/13 02:48:24;;;;;;;0.03;0.03;;;;;;;18.95;59.63;102125.84;5085552;28;20036;-75
2022/06/13 02:51:01;;;;;;;0.00;0.00;;;;;;;18.95;59.70;102120.47;5089429;28;20490;-74
2022/06/13 02:57:27;;;;;;;5.57;0.70;;;;;;;19.03;59.16;102123.78;5093072;27;20413;-74
2022/06/13 03:00:10;;;;;;;0.00;0.00;;;;;;;19.09;59.08;102128.09;5081576;28;20043;-74
2022/06/13 03:16:43;;;;;;;0.10;0.10;;;;;;;18.87;53.68;102138.66;5087604;27;1854083;-78
2022/06/13 03:19:25;;;;;;;2.53;1.95;;;;;;;18.98;52.68;102141.88;5128484;28;20053;-77
2022/06/13 03:22:03;;;;;;;0.10;0.10;;;;;;;18.98;52.52;102141.88;5130873;28;20482;-77
2022/06/13 03:24:40;;;;;;;0.00;0.00;;;;;;;18.87;51.22;102144.03;5131965;28;20034;-77
2022/06/13 03:27:14;;;;;;;0.10;0.10;;;;;;;18.96;51.56;102138.34;5122308;28;20095;-78
2022/06/13 03:29:46;;;;;;;0.00;0.00;;;;;;;18.94;51.31;102140.25;5124854;28;20039;-78
2022/06/13 03:32:15;;;;;;;;;;;;;;;18.96;51.35;102145.56;5125222;28;20024;-77
2022/06/13 03:34:49;;;;;;;0.10;0.10;;;;;;;18.81;50.08;102144.22;5123786;28;19916;-78
2022/06/13 03:37:21;;;;;;;0.00;0.00;;;;;;;18.83;50.80;102151.31;5129038;28;20035;-77
2022/06/13 03:42:37;;;;;;;0.00;0.00;;;;;;;18.87;49.76;102144.03;5069623;28;20395;-75
2022/06/13 03:45:11;;;;;;;0.57;0.57;;;;;;;18.82;49.56;102151.38;5069526;28;20033;-74
2022/06/13 03:47:44;;;;;;;0.00;0.00;;;;;;;18.83;49.05;102156.69;5074096;28;20393;-75
2022/06/13 03:52:55;;;;;;;0.03;0.03;;;;;;;18.88;49.55;102161.91;5064257;28;20409;-75
2022/06/13 03:55:31;;;;;;;0.00;0.00;;;;;;;18.94;49.46;102163.50;5047189;28;20166;-75
2022/06/13 03:58:17;;;;;;;0.03;0.03;;;;;;;18.99;49.40;102161.53;5058253;28;20029;-76
2022/06/13 04:00:56;;;;;;;0.20;0.20;;;;;;;18.95;49.08;102167.97;5052866;28;20035;-75
2022/06/13 04:03:24;;;;;;;0.10;0.10;;;;;;;18.92;49.56;102169.81;5053471;28;20040;-75
2022/06/13 04:06:02;;;;;;;0.00;0.00;;;;;;;18.98;49.25;102168.75;5047530;28;20502;-75
2022/06/13 04:08:33;;;;;;;0.10;0.10;;;;;;;19.00;49.49;102168.69;5053968;28;20079;-75
2022/06/13 04:11:23;;;;;;;0.20;0.20;;;;;;;19.04;48.98;102176.59;5052199;28;20326;-75
2022/06/13 04:16:58;;;;;;;0.10;0.10;;;;;;;19.05;49.17;102175.66;5090147;27;20775;-74
2022/06/13 04:20:04;;;;;;;0.10;0.10;;;;;;;19.10;49.36;102182.66;5095390;28;20097;-74
2022/06/13 04:22:51;;;;;;;0.00;0.00;;;;;;;19.06;49.04;102173.84;5080529;28;20125;-74
2022/06/13 04:30:44;;;;;;;0.00;0.00;;;;;;;19.09;49.33;102181.81;5122369;27;20375;-73
2022/06/13 04:33:39;;;;;;;0.08;0.08;;;;;;;19.08;48.83;102180.03;5105390;27;20024;-73
2022/06/13 04:36:10;;;;;;;0.00;0.00;;;;;;;19.07;49.09;102179.16;5099159;28;20030;-75
2022/06/13 04:38:40;;;;;;;0.03;0.03;;;;;;;19.11;49.29;102179.94;5113609;28;20448;-76
2022/06/13 04:41:08;;;;;;;0.30;0.30;;;;;;;19.08;49.17;102183.59;5113049;28;20020;-74
2022/06/13 04:43:39;;;;;;;0.03;0.03;;;;;;;19.00;48.94;102182.09;5107323;27;20031;-74
2022/06/13 04:46:09;;;;;;;0.00;0.00;;;;;;;19.14;49.00;102189.69;5107931;27;20115;-74
2022/06/13 04:48:38;;;;;;;0.03;0.03;;;;;;;18.96;48.39;102186.69;5107304;28;20115;-74
2022/06/13 04:51:11;;;;;;;0.10;0.10;;;;;;;19.07;48.95;102178.28;5105656;28;20023;-74
2022/06/13 04:56:27;;;;;;;1.55;1.40;;;;;;;19.00;48.89;102180.28;5089368;28;20401;-73
2022/06/13 04:58:55;;;;;;;0.00;0.00;;;;;;;18.99;48.72;102186.63;5077806;28;20069;-74
2022/06/13 05:01:28;;;;;;;0.00;0.00;;;;;;;19.00;48.78;102187.47;5054592;28;20037;-75
2022/06/13 05:03:57;;;;;;;0.20;0.20;;;;;;;18.95;48.83;102190.31;5048158;28;20033;-74
2022/06/13 05:06:45;;;;;;;0.00;0.00;;;;;;;19.05;48.59;102194.47;5051040;28;20025;-74
2022/06/13 05:11:55;;;;;;;0.10;0.10;;;;;;;19.06;48.68;102203.38;5107644;27;20400;-74
2022/06/13 05:17:41;;;;;;;0.00;0.00;;;;;;;19.02;48.16;102207.97;5069155;28;20410;-74
2022/06/13 05:20:17;;;;;;;0.10;0.10;;;;;;;18.95;48.62;102206.44;5046354;28;20555;-74
2022/06/13 05:28:16;;;;;;;0.00;0.00;;;;;;;18.87;48.46;102212.03;5078063;28;20379;-74
2022/06/13 05:30:45;;;;;;;0.00;0.00;;;;;;;18.84;48.51;102224.66;5070480;28;20045;-74
2022/06/13 05:33:14;;;;;;;0.10;0.10;;;;;;;18.86;48.61;102231.75;5062978;28;20056;-74
2022/06/13 05:35:43;;;;;;;0.00;0.00;;;;;;;18.81;48.39;102225.66;5062575;28;20057;-74
2022/06/13 05:38:14;;;;;;;0.10;0.10;;;;;;;18.85;48.62;102234.50;5064444;28;20028;-74
2022/06/13 05:40:40;;;;;;;0.10;0.10;;;;;;;18.86;48.46;102234.44;5067291;28;20020;-74
2022/06/13 05:43:08;;;;;;;0.10;0.10;;;;;;;18.84;48.69;102230.94;5068214;28;20094;-74
2022/06/13 05:45:34;;;;;;;0.10;0.10;;;;;;;18.71;49.77;102246.53;5063654;28;20028;-74
2022/06/13 05:48:00;;;;;;;0.10;0.10;;;;;;;18.68;49.76;102246.66;5062470;28;20038;-74
2022/06/13 05:50:29;;;;;;;0.10;0.10;;;;;;;18.73;50.37;102249.22;5065203;28;20045;-74
2022/06/13 05:52:56;;;;;;;0.10;0.10;;;;;;;18.69;50.03;102248.44;5064463;28;20486;-74
2022/06/13 05:55:22;;;;;;;0.03;0.03;;;;;;;18.75;50.13;102252.69;5067216;28;20033;-74
2022/06/13 05:57:48;;;;;;;0.22;0.20;;;;;;;18.81;51.04;102254.31;5070449;28;20024;-74
2022/06/13 06:00:22;;;;;;;0.00;0.00;;;;;;;18.76;50.45;102249.97;5062868;28;20025;-74
2022/06/13 06:02:48;;;;;;;0.00;0.00;;;;;;;18.80;50.75;102260.63;5058676;28;20506;-74
2022/06/13 06:05:14;;;;;;;0.10;0.10;;;;;;;18.85;50.55;102258.66;5062473;28;20494;-74
2022/06/13 06:07:41;;;;;;;0.10;0.10;;;;;;;19.03;50.19;102260.78;5066659;28;20069;-74
2022/06/13 06:10:15;;;;;;;0.00;0.00;;;;;;;18.97;49.55;102265.47;5053465;28;20072;-74
2022/06/13 06:12:41;;;;;;;0.10;0.10;;;;;;;18.72;48.30;102269.78;5060884;28;20068;-74
2022/06/13 06:15:07;;;;;;;0.10;0.10;;;;;;;18.87;48.51;102272.94;5060854;28;20044;-74
2022/06/13 06:17:34;;;;;;;0.10;0.10;;;;;;;18.90;48.46;102275.50;5061923;28;20044;-74
2022/06/13 06:20:00;;;;;;;0.00;0.00;;;;;;;18.75;48.43;102280.44;5063119;28;20040;-74
2022/06/13 06:22:26;;;;;;;0.35;0.35;;;;;;;18.97;48.62;102282.47;5063036;28;20040;-74
2022/06/13 06:24:52;;;;;;;0.10;0.10;;;;;;;18.98;49.07;102281.53;5059424;28;20044;-74
2022/06/13 06:27:18;;;;;;;0.10;0.10;;;;;;;18.88;47.01;102280.06;5065032;28;20123;-74
2022/06/13 06:29:44;;;;;;;0.00;0.00;;;;;;;18.96;47.65;102296.81;5060483;28;20111;-74
2022/06/13 06:32:10;;;;;;;2.17;0.73;;;;;;;18.91;47.02;102285.34;5056303;28;20040;-74
2022/06/13 06:34:37;;;;;;;0.00;0.00;;;;;;;18.94;47.51;102285.28;5062936;28;20118;-74
2022/06/13 06:37:03;;;;;;;0.10;0.10;;;;;;;19.00;47.85;102290.41;5060794;28;20499;-74
2022/06/13 06:39:29;;;;;;;0.00;0.00;;;;;;;18.72;46.59;102285.03;5045994;28;20041;-76
2022/06/13 06:41:56;;;;;;;0.00;0.00;;;;;;;18.83;47.34;102287.34;5050556;28;20112;-75
2022/06/13 06:44:22;;;;;;;0.10;0.10;;;;;;;18.94;47.78;102289.75;5046775;28;20450;-74
2022/06/13 06:46:48;;;;;;;0.03;0.03;;;;;;;18.93;47.47;102288.88;5036242;28;20466;-74
2022/06/13 06:49:14;;;;;;;0.10;0.10;;;;;;;18.94;47.57;102293.31;5045645;28;20033;-74
2022/06/13 06:51:43;;;;;;;0.10;0.10;;;;;;;18.92;47.97;102304.09;5045449;28;20037;-75
2022/06/13 06:59:57;;;;;;;0.03;0.03;;;;;;;19.11;47.29;102302.63;5046166;28;20041;-75
2022/06/13 07:02:26;;;;;;;0.20;0.20;;;;;;;19.14;47.47;102305.19;5038292;28;20028;-74
2022/06/13 07:04:55;;;;;;;0.10;0.10;;;;;;;19.13;47.19;102308.81;5037838;28;20112;-75
2022/06/13 07:07:23;;;;;;;0.00;0.00;;;;;;;19.20;46.82;102308.59;5031772;28;20491;-75
2022/06/13 07:09:49;;;;;;;0.10;0.10;;;;;;;19.19;46.61;102306.81;5038676;28;20052;-74
2022/06/13 07:12:15;;;;;;;0.10;0.10;;;;;;;19.21;45.58;102309.44;5038005;28;20039;-75
2022/06/13 07:14:42;;;;;;;0.10;0.10;;;;;;;19.19;44.09;102314.88;5033858;28;20033;-76
2022/06/13 07:17:09;;;;;;;0.00;0.00;;;;;;;19.03;43.80;102322.56;5032157;28;20071;-75
2022/06/13 07:19:36;;;;;;;0.75;0.75;;;;;;;19.06;43.17;102327.81;5049420;28;20503;-75
2022/06/13 07:22:04;;;;;;;6.82;1.40;;;;;;;19.17;43.89;102315.88;5051551;28;20447;-75
2022/06/13 07:24:31;;;;;;;0.00;0.00;;;;;;;19.25;43.87;102321.84;5049633;28;20032;-75
2022/06/13 07:26:58;;;;;;;2.10;1.33;;;;;;;19.36;44.45;102318.81;5043878;28;20021;-75
2022/06/13 07:29:24;;;;;;;0.10;0.10;;;;;;;19.31;44.36;102327.03;5051953;28;20051;-75
2022/06/13 07:31:57;;;;;;;0.00;0.00;;;;;;;19.51;44.17;102328.16;5051201;28;20028;-74
2022/06/13 07:34:28;;;;;;;0.00;0.00;;;;;;;19.52;43.74;102324.56;5052212;28;20125;-75
2022/06/13 07:36:56;;;;;;;0.00;0.00;;;;;;;19.83;43.24;102332.47;5042879;28;20032;-74
2022/06/13 07:39:23;;;;;;;0.10;0.10;;;;;;;19.95;42.65;102332.94;5040060;28;20025;-75
2022/06/13 07:41:50;;;;;;;0.10;0.10;;;;;;;20.03;43.03;102342.50;5033941;28;20556;-75
2022/06/13 07:44:21;;;;;;;0.10;0.10;;;;;;;20.14;44.08;102333.19;5032612;28;20711;-76
2022/06/13 07:46:48;;;;;;;0.10;0.10;;;;;;;20.05;42.90;102353.22;5035750;28;20525;-76
2022/06/13 07:49:15;;;;;;;0.00;0.00;;;;;;;19.93;43.39;102346.47;5033031;28;20116;-76
2022/06/13 07:51:41;;;;;;;0.10;0.10;;;;;;;19.99;43.59;102359.69;5046330;28;20039;-76
2022/06/13 07:54:07;;;;;;;0.10;0.10;;;;;;;19.91;43.88;102356.38;5051653;28;20483;-76
2022/06/13 07:56:36;;;;;;;0.08;0.08;;;;;;;19.77;44.09;102361.34;5046617;28;20057;-76
2022/06/13 07:59:03;;;;;;;0.00;0.00;;;;;;;19.80;44.35;102366.63;5045976;28;20064;-76
2022/06/13 08:01:29;;;;;;;0.10;0.10;;;;;;;19.80;44.35;102358.53;5050775;28;20024;-76
2022/06/13 08:03:56;;;;;;;0.03;0.03;;;;;;;19.74;43.63;102365.03;5052050;28;20032;-76
2022/06/13 08:06:24;;;;;;;0.10;0.10;;;;;;;19.75;44.27;102368.59;5051781;28;20061;-76
2022/06/13 08:08:51;;;;;;;0.10;0.10;;;;;;;19.82;44.80;102372.81;5051223;28;20090;-76
2022/06/13 08:11:34;;;;;;;0.10;0.10;;;;;;;19.89;44.74;102377.09;5044800;28;20029;-76
2022/06/13 08:14:01;;;;;;;0.10;0.10;;;;;;;19.61;45.58;102378.00;5048853;28;20394;-76
2022/06/13 08:16:28;;;;;;;0.10;0.10;;;;;;;19.60;46.12;102392.41;5051343;28;20074;-76
2022/06/13 08:19:12;;;;;;;0.10;0.10;;;;;;;19.64;46.17;102377.91;5051201;28;20056;-76
2022/06/13 08:21:42;;;;;;;0.20;0.20;;;;;;;19.70;46.20;102392.94;5050811;28;20041;-76
2022/06/13 08:24:08;;;;;;;0.00;0.00;;;;;;;19.75;46.41;102390.09;5051206;28;20028;-75
2022/06/13 08:26:34;;;;;;;0.10;0.10;;;;;;;19.86;45.29;102382.56;5046551;28;20116;-76
2022/06/13 08:29:00;;;;;;;0.10;0.10;;;;;;;20.04;45.31;102391.81;5049322;28;20037;-76
2022/06/13 08:31:26;;;;;;;0.00;0.00;;;;;;;20.32;45.06;102390.81;5050288;28;20402;-76
2022/06/13 08:33:53;;;;;;;0.00;0.00;;;;;;;20.20;41.77;102398.41;5051335;28;20028;-74
2022/06/13 08:36:21;;;;;;;0.00;0.00;;;;;;;20.23;41.79;102392.03;5050037;28;20029;-74
2022/06/13 08:38:47;;;;;;;0.10;0.10;;;;;;;20.09;40.89;102387.16;5049471;28;20510;-74
2022/06/13 08:47:05;;;;;;;0.52;0.52;;;;;;;20.60;41.66;102406.84;5108550;27;20392;-75
2022/06/13 08:49:42;;;;;;;0.10;0.10;;;;;;;20.71;41.22;102408.25;5106821;28;20111;-75
2022/06/13 08:55:19;;;;;;;0.00;0.00;;;;;;;20.87;41.46;102416.66;5016791;27;1873877;-75
2022/06/13 08:57:53;;;;;;;0.10;0.10;;;;;;;20.83;41.05;102413.19;5047876;28;20477;-75
2022/06/13 09:00:23;;;;;;;0.10;0.10;;;;;;;20.85;41.29;102414.91;5033001;28;20036;-75
2022/06/13 09:02:55;;;;;;;0.00;0.00;;;;;;;21.04;41.20;102413.31;5027649;28;20057;-75
2022/06/13 09:05:33;;;;;;;0.28;0.28;;;;;;;20.90;40.99;102424.59;5030058;28;20048;-75
2022/06/13 09:10:44;;;;;;;0.47;0.45;;;;;;;20.85;41.39;102422.09;5061583;28;20404;-74
2022/06/13 09:13:21;;;;;;;8.43;0.65;;;;;;;20.79;40.96;102423.22;5031935;28;20036;-74
2022/06/13 09:15:55;;;;;;;1.23;1.13;;;;;;;20.75;40.87;102432.34;5039293;28;20038;-74
2022/06/13 09:21:19;;;;;;;0.10;0.10;;;;;;;20.50;41.48;102440.44;5079219;27;20399;-75
2022/06/13 09:29:41;;;;;;;0.10;0.10;;;;;;;20.79;40.65;102433.13;5064149;28;20357;-74
2022/06/13 09:37:48;;;;;;;0.10;0.10;;;;;;;20.79;39.80;102449.28;5048103;28;20416;-75
2022/06/13 09:40:22;;;;;;;0.98;0.73;;;;;;;20.77;40.37;102451.13;5046463;28;20029;-74
2022/06/13 09:48:16;;;;;;;0.10;0.10;;;;;;;21.26;41.00;102453.75;5101826;27;20645;-78
2022/06/13 09:53:33;;;;;;;0.00;0.00;;;;;;;21.12;41.19;102457.00;5088270;27;20401;-75
2022/06/13 09:56:05;;;;;;;0.10;0.10;;;;;;;21.31;42.38;102449.94;5073114;28;20127;-75
2022/06/13 09:58:41;;;;;;;;;;;;;;;21.55;39.62;102444.50;5073519;28;20452;-75
2022/06/13 10:09:27;;;;;;;0.10;0.10;;;;;;;21.04;39.63;102460.00;5088143;28;20378;-77
2022/06/13 10:37:24;;;;;;;0.00;0.00;;;;;;;21.57;37.54;102480.41;5108687;27;20376;-75
2022/06/13 10:39:55;;;;;;;0.10;0.10;;;;;;;21.38;36.56;102482.91;5106375;28;20038;-75
2022/06/13 10:42:26;;;;;;;0.00;0.00;;;;;;;21.67;38.38;102478.22;5105870;28;20027;-75
2022/06/13 10:44:53;;;;;;;0.35;0.35;;;;;;;21.42;37.74;102478.28;5108396;28;20024;-76
2022/06/13 10:50:21;;;;;;;0.10;0.10;;;;;;;21.42;37.26;102480.97;5106628;27;20420;-75
2022/06/13 10:52:52;;;;;;;0.05;0.05;;;;;;;21.27;37.61;102483.38;5084840;28;20024;-75
2022/06/13 10:55:23;;;;;;;0.10;0.10;;;;;;;21.11;37.55;102492.97;5088081;28;20043;-75
2022/06/13 10:58:01;;;;;;;0.00;0.00;;;;;;;21.05;37.25;102485.09;5088111;28;20112;-75
2022/06/13 11:00:30;;;;;;;0.10;0.10;;;;;;;21.18;37.45;102478.31;5087757;28;20040;-75
2022/06/13 11:03:15;;;;;;;0.20;0.20;;;;;;;21.06;36.71;102486.88;5087480;28;20048;-75
2022/06/13 11:06:02;;;;;;;0.20;0.20;;;;;;;21.34;37.51;102479.47;5084803;28;20104;-75
2022/06/13 11:08:29;;;;;;;0.10;0.10;;;;;;;21.45;35.77;102483.56;5082507;28;20024;-75
2022/06/13 11:10:59;;;;;;;0.08;0.08;;;;;;;21.59;36.03;102494.69;5086856;28;20484;-75
2022/06/13 11:13:36;;;;;;;0.00;0.00;;;;;;;21.64;36.32;102498.09;5087869;28;20032;-75
2022/06/13 11:24:52;;;;;;;0.10;0.10;;;;;;;21.80;36.41;102508.28;5044143;28;20048;-75
2022/06/13 11:27:45;;;;;;;0.47;0.40;;;;;;;22.00;36.28;102499.34;5044431;28;20053;-75
2022/06/13 11:41:21;;;;;;;0.25;0.25;;;;;;;22.26;35.83;102500.94;5067230;28;20457;-75
2022/06/13 11:44:02;;;;;;;0.00;0.00;;;;;;;22.17;35.09;102509.44;5068333;28;20044;-75
2022/06/13 11:51:58;;;;;;;0.10;0.10;;;;;;;21.78;36.68;102494.84;5149008;27;20389;-75
2022/06/13 11:54:31;;;;;;;0.10;0.10;;;;;;;21.73;36.37;102514.84;5149398;27;20026;-75
2022/06/13 11:57:30;;;;;;;0.70;0.70;;;;;;;21.69;35.97;102515.94;5149933;27;20388;-75
2022/06/13 12:08:04;;;;;;;0.10;0.10;;;;;;;22.02;34.67;102512.75;5067966;28;20398;-75
2022/06/13 12:10:35;;;;;;;0.52;0.52;;;;;;;22.16;35.03;102498.69;5067960;28;20135;-75
2022/06/13 12:13:03;;;;;;;0.05;0.05;;;;;;;22.33;34.87;102503.34;5067116;28;20028;-75
2022/06/13 12:15:40;;;;;;;0.00;0.00;;;;;;;22.61;35.04;102503.94;5068221;28;20389;-75
2022/06/13 12:23:54;;;;;;;0.10;0.10;;;;;;;23.03;35.09;102509.28;5068026;28;20730;-75
2022/06/13 12:37:24;;;;;;;0.00;0.00;;;;;;;22.54;33.95;102521.38;5047824;28;20390;-75
2022/06/13 12:40:14;;;;;;;0.10;0.10;;;;;;;22.60;35.43;102515.72;5048403;28;20116;-75
2022/06/13 12:42:58;;;;;;;0.08;0.08;;;;;;;22.58;34.55;102509.47;5047529;28;20037;-75
2022/06/13 12:45:40;;;;;;;0.10;0.10;;;;;;;22.65;34.35;102518.19;5048076;28;20079;-75
2022/06/13 12:48:29;;;;;;;0.10;0.10;;;;;;;22.85;34.23;102525.38;5046537;28;20036;-75
2022/06/13 12:56:31;;;;;;;0.03;0.03;;;;;;;23.02;33.40;102521.91;5108865;27;20388;-75
2022/06/13 13:04:52;;;;;;;0.00;0.00;;;;;;;23.18;34.04;102524.81;5063846;27;20945;-75
2022/06/13 13:10:21;;;;;;;0.00;0.00;;;;;;;22.99;33.07;102523.88;5088207;27;20382;-74
2022/06/13 13:16:10;;;;;;;0.00;0.00;;;;;;;22.98;33.78;102524.81;5066854;28;20414;-75
2022/06/13 13:27:07;;;;;;;0.17;0.17;;;;;;;23.43;34.85;102531.78;5068151;28;20389;-75
2022/06/13 13:32:30;;;;;;;0.20;0.20;;;;;;;23.72;33.31;102522.22;5104152;27;20406;-76
2022/06/13 13:37:43;;;;;;;0.00;0.00;;;;;;;23.83;34.52;102540.66;5109410;27;20359;-77
2022/06/13 13:40:36;;;;;;;0.70;0.70;;;;;;;23.56;33.21;102537.47;5107360;28;20054;-77
2022/06/13 13:43:05;;;;;;;;;;;;;;;23.80;32.87;102530.00;5112508;28;20019;-76
2022/06/13 13:51:05;;;;;;;0.08;0.08;;;;;;;23.89;33.57;102529.53;5107959;27;20380;-75
2022/06/13 13:53:49;;;;;;;0.22;0.22;;;;;;;23.99;33.17;102534.50;5108655;28;20039;-75
2022/06/13 13:56:55;;;;;;;0.00;0.00;;;;;;;23.93;32.39;102533.00;5103855;28;20032;-75
2022/06/13 13:59:26;;;;;;;0.10;0.10;;;;;;;23.96;32.79;102523.84;5098920;28;20028;-75
2022/06/13 14:02:10;;;;;;;0.10;0.10;;;;;;;24.42;32.45;102529.59;5107634;28;20401;-75
2022/06/13 14:09:59;;;;;;;0.10;0.10;;;;;;;24.68;32.63;102533.69;5087572;28;20386;-75
2022/06/13 14:12:25;;;;;;;0.30;0.30;;;;;;;24.67;31.28;102525.63;5067380;28;20028;-75
2022/06/13 14:15:08;;;;;;;0.20;0.20;;;;;;;24.95;31.55;102532.28;5067966;28;20063;-75
2022/06/13 14:17:47;;;;;;;0.00;0.00;;;;;;;24.74;31.33;102521.66;5066291;28;20119;-76
2022/06/13 14:20:30;;;;;;;0.55;0.40;;;;;;;24.64;31.21;102533.91;5066096;28;20433;-75
2022/06/13 14:23:00;;;;;;;2.45;1.55;;;;;;;24.37;31.04;102529.88;5066819;28;20108;-76
2022/06/13 14:25:39;;;;;;;0.35;0.35;;;;;;;24.29;30.64;102533.91;5067849;28;20379;-75
2022/06/13 14:28:21;;;;;;;1.38;1.27;;;;;;;24.37;30.80;102546.13;5067509;28;20029;-75
2022/06/13 14:39:39;;;;;;;0.65;0.65;;;;;;;23.85;29.83;102533.34;5064919;28;20369;-75
2022/06/13 14:45:08;;;;;;;0.10;0.10;;;;;;;23.02;31.63;102529.16;5057764;28;20410;-75
2022/06/13 15:04:12;;;;;;;0.10;0.10;;;;;;;23.61;31.48;102535.41;5089462;27;20404;-75
2022/06/13 15:09:40;;;;;;;0.00;0.00;;;;;;;23.92;30.52;102522.25;5107965;27;20387;-77
2022/06/13 15:12:14;;;;;;;0.10;0.10;;;;;;;23.63;29.84;102529.91;5099686;28;20582;-77
2022/06/13 15:15:00;;;;;;;0.20;0.20;;;;;;;23.81;29.33;102520.91;5108718;28;20050;-76
2022/06/13 15:17:29;;;;;;;0.20;0.20;;;;;;;23.85;28.80;102519.81;5097247;28;20033;-76
2022/06/13 15:19:59;;;;;;;0.47;0.47;;;;;;;24.08;29.80;102523.22;5094698;28;20028;-77
2022/06/13 15:22:32;;;;;;;0.10;0.10;;;;;;;24.10;29.29;102510.50;5105385;28;20037;-76
2022/06/13 15:25:02;;;;;;;0.20;0.20;;;;;;;24.28;30.10;102513.22;5099715;28;20039;-76
2022/06/13 15:27:28;;;;;;;0.10;0.10;;;;;;;24.42;29.88;102501.66;5105718;28;20055;-76
2022/06/13 15:33:22;;;;;;;0.10;0.10;;;;;;;25.06;29.91;102516.31;5086636;27;20415;-76
2022/06/13 15:41:10;;;;;;;0.10;0.10;;;;;;;25.64;29.31;102514.03;5092353;27;20444;-77
2022/06/13 15:43:45;;;;;;;0.20;0.20;;;;;;;25.88;28.56;102505.41;5071484;28;20484;-78
2022/06/13 15:46:24;;;;;;;0.00;0.00;;;;;;;26.07;27.78;102502.50;5072973;28;20387;-78
2022/06/13 15:48:52;;;;;;;0.00;0.00;;;;;;;25.95;27.14;102495.94;5062115;28;20182;-78
2022/06/13 15:51:24;;;;;;;6.70;1.67;;;;;;;26.06;27.65;102493.50;5057847;28;20119;-78
2022/06/13 15:53:51;;;;;;;0.20;0.20;;;;;;;25.64;25.89;102503.16;5075870;28;20457;-78
2022/06/13 15:56:28;;;;;;;0.10;0.10;;;;;;;25.34;26.41;102520.19;5069003;28;20488;-76
2022/06/13 15:58:59;;;;;;;0.10;0.10;;;;;;;25.46;28.55;102508.69;5063960;28;20063;-77
2022/06/13 16:01:25;;;;;;;0.00;0.00;;;;;;;25.41;27.28;102510.78;5069841;28;20116;-77
2022/06/13 16:03:51;;;;;;;0.38;0.38;;;;;;;25.42;27.73;102501.69;5072460;28;20055;-77
2022/06/13 16:06:18;;;;;;;0.00;0.00;;;;;;;25.75;28.31;102502.56;5069816;28;20033;-77
2022/06/13 16:08:48;;;;;;;0.10;0.10;;;;;;;26.06;27.97;102493.50;5069107;28;20031;-77
2022/06/13 16:11:15;;;;;;;0.00;0.00;;;;;;;25.97;26.82;102491.28;5071143;28;20029;-77
2022/06/13 16:13:54;;;;;;;0.05;0.05;;;;;;;25.93;26.83;102495.16;5071854;28;20025;-77
2022/06/13 16:16:25;;;;;;;0.10;0.10;;;;;;;25.71;25.96;102507.28;5072962;28;20441;-77
2022/06/13 16:18:53;;;;;;;0.80;0.80;;;;;;;25.71;25.96;102507.28;5071140;28;20515;-78
2022/06/13 16:21:24;;;;;;;0.55;0.47;;;;;;;25.58;26.66;102492.66;5062609;28;20037;-78
2022/06/13 16:24:03;;;;;;;0.15;0.15;;;;;;;25.78;26.60;102495.09;5063485;28;20179;-77
2022/06/13 16:26:36;;;;;;;0.10;0.10;;;;;;;25.63;26.84;102488.72;5071427;28;20028;-77
2022/06/13 16:29:05;;;;;;;1.45;1.20;;;;;;;25.86;26.99;102500.06;5071365;28;20020;-78
2022/06/13 16:31:32;;;;;;;0.10;0.10;;;;;;;25.91;26.13;102483.53;5069795;28;20029;-78
2022/06/13 16:34:00;;;;;;;0.08;0.08;;;;;;;26.09;26.16;102495.16;5071218;28;20032;-78
2022/06/13 16:39:33;;;;;;;0.10;0.10;;;;;;;26.55;26.05;102495.03;5108349;27;20383;-76
2022/06/13 16:42:12;;;;;;;0.20;0.20;;;;;;;26.45;26.07;102493.88;5107822;28;20054;-75